Time;durP1;ratioP1;P1;durP2;ratioP2;P2;SDS_P1;SDS_P2;PMS_P1;PMS_P2;Temp;Humidity;BMP_temperature;BMP_pressure;BME280_temperature;BME280_humidity;BME280_pressure;Samples;Min_cycle;Max_cycle;Signal;HPM_P1;HPM_P2
2021/03/06 00:00:22;;;;;;;8.50;5.53;;;;;;;3.19;63.98;93454.91;2061326;69;20150;-72
2021/03/06 00:02:49;;;;;;;9.48;5.93;;;;;;;3.22;63.99;93453.84;2061411;69;20149;-72
2021/03/06 00:05:15;;;;;;;8.20;5.68;;;;;;;3.24;63.89;93451.25;2061262;69;20228;-71
2021/03/06 00:07:40;;;;;;;8.07;5.57;;;;;;;3.30;64.09;93457.44;2061257;69;20601;-71
2021/03/06 00:10:12;;;;;;;8.00;5.50;;;;;;;3.34;63.91;93461.88;2061422;69;20145;-71
2021/03/06 00:12:43;;;;;;;8.23;5.40;;;;;;;3.23;64.51;93460.91;2061314;69;20695;-71
2021/03/06 00:15:11;;;;;;;7.32;5.13;;;;;;;3.21;64.37;93459.97;2061376;69;20157;-71
2021/03/06 00:17:37;;;;;;;11.30;5.90;;;;;;;3.26;63.51;93459.81;2061321;69;20153;-71
2021/03/06 00:20:04;;;;;;;9.40;5.72;;;;;;;3.33;62.82;93466.72;2061372;69;20177;-72
2021/03/06 00:22:29;;;;;;;9.40;5.93;;;;;;;3.36;63.42;93468.41;2061013;69;20265;-72
2021/03/06 00:24:56;;;;;;;8.45;5.72;;;;;;;3.32;63.48;93462.44;2061170;69;20327;-70
2021/03/06 00:27:23;;;;;;;7.88;5.28;;;;;;;3.24;64.34;93464.41;2061361;69;20153;-72
2021/03/06 00:29:49;;;;;;;9.50;6.00;;;;;;;2.78;64.91;93475.88;2061584;69;20148;-74
2021/03/06 00:32:14;;;;;;;9.23;6.05;;;;;;;2.71;65.24;93471.03;2061872;69;20544;-72
2021/03/06 00:34:40;;;;;;;9.38;6.20;;;;;;;2.70;65.76;93469.53;2061889;69;20188;-73
2021/03/06 00:37:06;;;;;;;9.55;6.07;;;;;;;2.20;67.30;93468.63;2061671;69;20237;-72
2021/03/06 00:39:31;;;;;;;8.25;5.97;;;;;;;2.49;65.96;93471.53;2061748;69;20166;-73
2021/03/06 00:41:57;;;;;;;9.55;6.63;;;;;;;2.46;67.13;93467.03;2061810;69;20597;-72
2021/03/06 00:44:23;;;;;;;8.40;5.53;;;;;;;2.68;66.63;93474.88;2061792;69;20243;-72
2021/03/06 00:46:48;;;;;;;9.60;6.03;;;;;;;2.95;65.20;93477.53;2061875;69;20252;-72
2021/03/06 00:49:21;;;;;;;9.13;6.28;;;;;;;2.87;65.96;93479.50;2061897;69;20157;-72
2021/03/06 00:51:47;;;;;;;8.93;5.80;;;;;;;2.94;65.53;93479.56;2061767;69;20157;-73
2021/03/06 00:54:18;;;;;;;8.57;6.25;;;;;;;3.02;65.33;93487.97;2061835;69;20136;-72
2021/03/06 00:56:44;;;;;;;10.43;6.40;;;;;;;3.08;64.47;93483.03;2061228;69;20152;-72
2021/03/06 00:59:11;;;;;;;9.77;6.53;;;;;;;3.10;64.87;93483.22;2061324;69;20592;-72
2021/03/06 01:01:37;;;;;;;8.38;5.80;;;;;;;3.00;65.24;93477.41;2061952;69;20153;-72
2021/03/06 01:04:06;;;;;;;8.98;6.15;;;;;;;3.15;64.74;93485.13;2061901;69;20165;-73
2021/03/06 01:06:32;;;;;;;11.52;6.93;;;;;;;3.11;65.47;93476.38;2061636;69;20134;-72
2021/03/06 01:08:58;;;;;;;9.55;6.30;;;;;;;2.96;65.99;93476.25;2061772;69;20190;-72
2021/03/06 01:11:23;;;;;;;10.30;6.80;;;;;;;2.97;65.24;93478.47;2061751;69;20177;-72
2021/03/06 01:13:49;;;;;;;9.70;6.40;;;;;;;3.04;65.60;93480.59;2061686;69;20172;-72
2021/03/06 01:16:15;;;;;;;10.70;7.22;;;;;;;2.57;66.75;93471.59;2061726;69;20234;-72
2021/03/06 01:18:40;;;;;;;10.65;7.13;;;;;;;2.68;66.58;93463.00;2061156;69;20177;-72
2021/03/06 01:21:06;;;;;;;11.40;7.13;;;;;;;2.94;66.29;93468.44;2061520;69;20172;-72
2021/03/06 01:23:32;;;;;;;10.75;6.80;;;;;;;3.02;65.28;93462.94;2061801;69;20141;-72
2021/03/06 01:25:58;;;;;;;11.43;6.82;;;;;;;3.05;65.12;93459.81;2061876;69;20605;-72
2021/03/06 01:28:23;;;;;;;10.68;7.25;;;;;;;2.96;65.33;93471.44;2058290;69;20157;-72
2021/03/06 01:30:49;;;;;;;11.13;7.50;;;;;;;2.62;67.02;93463.16;2061820;69;20537;-72
2021/03/06 01:33:15;;;;;;;11.95;7.57;;;;;;;2.77;66.58;93463.28;2061640;69;20149;-72
2021/03/06 01:35:41;;;;;;;12.27;8.10;;;;;;;2.79;66.34;93455.16;2061619;69;20173;-72
2021/03/06 01:38:07;;;;;;;11.43;7.72;;;;;;;2.86;66.00;93456.50;2063720;69;20231;-72
2021/03/06 01:40:34;;;;;;;12.02;8.15;;;;;;;2.76;66.20;93449.94;2061655;69;20578;-71
2021/03/06 01:43:08;;;;;;;11.27;8.23;;;;;;;2.76;66.34;93458.28;2061658;69;20260;-71
2021/03/06 01:45:34;;;;;;;13.70;8.70;;;;;;;2.18;69.00;93451.00;2061610;69;20203;-72
2021/03/06 01:48:01;;;;;;;13.82;9.18;;;;;;;2.56;67.96;93448.59;2061705;69;20161;-72
2021/03/06 01:50:31;;;;;;;10.98;7.80;;;;;;;2.87;66.24;93451.69;2061482;69;20145;-72
2021/03/06 01:52:59;;;;;;;15.23;8.65;;;;;;;2.92;66.60;93456.38;2061668;69;20138;-72
2021/03/06 01:55:27;;;;;;;10.85;7.88;;;;;;;2.95;65.86;93456.03;2061676;69;20752;-71
2021/03/06 01:57:54;;;;;;;10.88;7.60;;;;;;;2.89;66.05;93451.91;2061682;69;20282;-72
2021/03/06 02:00:29;;;;;;;11.25;7.88;;;;;;;3.06;66.12;93446.66;2061652;69;20240;-72
2021/03/06 02:03:00;;;;;;;11.03;7.43;;;;;;;2.57;67.02;93449.34;2061860;69;20149;-72
2021/03/06 02:05:26;;;;;;;12.93;8.05;;;;;;;2.66;66.28;93452.44;2061705;69;20367;-73
2021/03/06 02:07:55;;;;;;;9.95;7.25;;;;;;;2.50;67.14;93445.22;2061818;69;20143;-73
2021/03/06 02:10:28;;;;;;;11.55;7.30;;;;;;;2.52;66.32;93446.19;2061690;69;20157;-73
2021/03/06 02:13:00;;;;;;;10.95;7.28;;;;;;;2.08;68.07;93442.34;2061794;69;20529;-71
2021/03/06 02:15:55;;;;;;;10.70;7.43;;;;;;;2.22;67.46;93446.59;2061274;69;20691;-73
2021/03/06 02:18:31;;;;;;;10.43;6.90;;;;;;;1.96;68.23;93444.63;2061716;69;20175;-71
2021/03/06 02:21:22;;;;;;;10.70;7.90;;;;;;;1.83;68.97;93450.19;2061565;69;20148;-73
2021/03/06 02:24:26;;;;;;;11.82;7.97;;;;;;;1.64;70.26;93453.09;2061626;69;20130;-73
2021/03/06 02:27:10;;;;;;;10.25;7.38;;;;;;;2.00;68.87;93444.28;2061548;69;20303;-73
2021/03/06 02:29:50;;;;;;;10.43;7.35;;;;;;;1.83;68.32;93450.19;2061599;69;20149;-73
2021/03/06 02:32:35;;;;;;;9.35;6.97;;;;;;;1.71;68.69;93443.38;2061659;69;20264;-72
2021/03/06 02:35:09;;;;;;;10.00;7.25;;;;;;;1.82;68.38;93453.50;2061700;69;20238;-73
2021/03/06 02:37:39;;;;;;;9.90;7.00;;;;;;;1.72;68.95;93455.97;2061724;69;20145;-74
2021/03/06 02:40:07;;;;;;;8.75;6.68;;;;;;;1.80;68.36;93454.06;2061244;69;20284;-73
2021/03/06 02:42:34;;;;;;;9.60;6.68;;;;;;;1.92;68.17;93457.34;2061776;69;20145;-73
2021/03/06 02:45:00;;;;;;;8.90;6.80;;;;;;;1.83;68.12;93458.50;2061755;69;20141;-73
2021/03/06 02:47:26;;;;;;;8.82;6.47;;;;;;;2.16;67.07;93451.53;2061770;69;20211;-73
2021/03/06 02:50:00;;;;;;;11.50;6.75;;;;;;;2.02;66.93;93452.84;2061592;69;20199;-74
2021/03/06 02:52:26;;;;;;;9.50;6.82;;;;;;;1.70;67.55;93456.53;2061664;69;20149;-73
2021/03/06 02:54:53;;;;;;;9.90;6.70;;;;;;;2.22;66.79;93462.53;2061854;69;20149;-73
2021/03/06 02:57:32;;;;;;;10.27;7.22;;;;;;;2.01;67.31;93460.41;2061692;69;20165;-73
2021/03/06 03:00:20;;;;;;;9.25;6.88;;;;;;;1.48;68.78;93459.72;2061794;69;20153;-74
2021/03/06 03:03:00;;;;;;;9.98;7.30;;;;;;;1.45;69.29;93458.00;2061676;69;20300;-73
2021/03/06 03:05:32;;;;;;;10.52;7.15;;;;;;;1.82;68.43;93462.59;2061472;69;20652;-74
2021/03/06 03:08:01;;;;;;;11.20;7.45;;;;;;;1.77;68.08;93466.97;2061867;69;20169;-74
2021/03/06 03:10:31;;;;;;;10.45;7.00;;;;;;;1.57;68.35;93470.41;2061707;69;20536;-74
2021/03/06 03:13:08;;;;;;;10.55;7.43;;;;;;;1.14;69.57;93476.22;2061705;69;20152;-73
2021/03/06 03:15:39;;;;;;;12.98;7.13;;;;;;;1.34;69.09;93483.19;2061716;69;20146;-73
2021/03/06 03:18:08;;;;;;;11.63;8.15;;;;;;;1.44;69.08;93479.47;2061666;69;20160;-73
2021/03/06 03:20:54;;;;;;;10.55;7.63;;;;;;;1.49;68.37;93486.19;2061667;69;20243;-73
2021/03/06 03:23:24;;;;;;;10.32;7.15;;;;;;;1.71;68.00;93482.25;2061780;69;20711;-73
2021/03/06 03:25:51;;;;;;;10.52;7.05;;;;;;;1.45;68.62;93483.72;2061662;69;20148;-74
2021/03/06 03:28:18;;;;;;;8.98;6.47;;;;;;;1.86;67.59;93490.78;2063944;69;20146;-74
2021/03/06 03:30:45;;;;;;;10.07;6.93;;;;;;;2.21;66.43;93492.34;2061621;69;20126;-74
2021/03/06 03:33:14;;;;;;;8.93;6.43;;;;;;;2.39;65.51;93490.69;2061094;69;20208;-74
2021/03/06 03:35:41;;;;;;;10.25;6.65;;;;;;;2.37;65.21;93490.47;2060985;69;20587;-74
2021/03/06 03:38:09;;;;;;;10.23;7.10;;;;;;;2.30;65.28;93488.38;2061248;69;20219;-73
2021/03/06 03:40:37;;;;;;;11.07;7.32;;;;;;;2.18;65.70;93489.88;2061567;69;20175;-73
2021/03/06 03:43:04;;;;;;;9.55;6.97;;;;;;;2.01;65.85;93487.44;2061603;69;20181;-73
2021/03/06 03:45:31;;;;;;;10.15;7.13;;;;;;;1.95;66.42;93490.34;2061731;69;20208;-73
2021/03/06 03:47:59;;;;;;;9.02;6.60;;;;;;;1.78;66.96;93487.16;2061723;69;20591;-73
2021/03/06 03:50:25;;;;;;;8.85;6.45;;;;;;;2.07;66.00;93490.88;2061510;69;20146;-73
2021/03/06 03:52:51;;;;;;;9.27;6.60;;;;;;;2.29;65.25;93487.63;2061055;69;20156;-74
2021/03/06 03:55:18;;;;;;;10.48;6.53;;;;;;;2.23;65.31;93495.31;2061577;69;20192;-74
2021/03/06 03:57:48;;;;;;;10.15;7.07;;;;;;;2.16;66.61;93489.69;2061554;69;20237;-73
2021/03/06 04:00:17;;;;;;;9.45;7.18;;;;;;;2.09;65.59;93491.06;2061589;69;20145;-73
2021/03/06 04:02:43;;;;;;;9.93;6.50;;;;;;;2.16;65.27;93490.44;2061443;69;20169;-73
2021/03/06 04:05:10;;;;;;;12.07;7.22;;;;;;;1.68;66.44;93494.41;2061913;69;20505;-73
2021/03/06 04:07:51;;;;;;;13.25;7.25;;;;;;;2.14;65.51;93495.75;2062180;69;20153;-73
2021/03/06 04:10:21;;;;;;;10.02;6.93;;;;;;;2.31;64.78;93506.53;2062096;69;20165;-73
2021/03/06 04:12:47;;;;;;;11.27;6.78;;;;;;;1.70;66.50;93508.53;2062548;69;20161;-73
2021/03/06 04:15:15;;;;;;;9.80;7.05;;;;;;;1.94;66.75;93513.84;2062026;69;20215;-73
2021/03/06 04:17:41;;;;;;;10.68;7.13;;;;;;;1.84;66.79;93512.03;2062038;69;20725;-73
2021/03/06 04:20:09;;;;;;;11.18;7.60;;;;;;;2.10;65.75;93514.78;2062065;69;20173;-74
2021/03/06 04:22:35;;;;;;;9.25;6.90;;;;;;;1.92;65.67;93515.66;2062065;69;20144;-73
2021/03/06 04:25:01;;;;;;;8.65;6.50;;;;;;;1.38;67.56;93523.22;2062058;69;20161;-73
2021/03/06 04:27:26;;;;;;;9.88;7.03;;;;;;;1.34;67.89;93525.56;2062160;69;20160;-73
2021/03/06 04:29:52;;;;;;;11.30;7.10;;;;;;;1.52;67.52;93521.22;2062065;69;20497;-73
2021/03/06 04:32:18;;;;;;;10.27;7.43;;;;;;;1.62;66.89;93527.09;2062159;69;20240;-73
2021/03/06 04:34:44;;;;;;;12.68;7.40;;;;;;;2.00;65.80;93525.59;2062115;69;20152;-73
2021/03/06 04:37:10;;;;;;;10.95;7.57;;;;;;;2.15;65.23;93530.59;2061972;69;20164;-73
2021/03/06 04:39:35;;;;;;;10.07;6.53;;;;;;;2.27;64.40;93533.88;2062002;69;20137;-74
2021/03/06 04:42:01;;;;;;;10.30;7.10;;;;;;;2.20;64.56;93534.53;2061954;69;20168;-74
2021/03/06 04:44:28;;;;;;;9.98;6.93;;;;;;;2.22;65.25;93531.97;2062006;69;20195;-74
2021/03/06 04:46:54;;;;;;;9.68;7.30;;;;;;;2.17;65.72;93530.06;2062049;69;20157;-73
2021/03/06 04:49:19;;;;;;;10.18;7.32;;;;;;;2.15;65.69;93538.16;2062144;69;20148;-74
2021/03/06 04:51:45;;;;;;;11.05;7.38;;;;;;;1.78;65.74;93546.19;2061340;69;20141;-73
2021/03/06 04:54:11;;;;;;;10.48;7.25;;;;;;;1.64;65.74;93543.94;2061996;69;20224;-73
2021/03/06 04:56:36;;;;;;;9.60;7.03;;;;;;;1.62;65.41;93549.28;2061949;69;20229;-73
2021/03/06 04:59:02;;;;;;;13.35;8.13;;;;;;;1.43;66.48;93554.94;2061996;69;20233;-73
2021/03/06 05:01:28;;;;;;;10.68;7.47;;;;;;;1.52;66.27;93551.75;2061970;69;20153;-74
2021/03/06 05:03:53;;;;;;;14.35;8.05;;;;;;;1.12;66.99;93557.19;2061954;69;20612;-73
2021/03/06 05:06:19;;;;;;;12.10;7.40;;;;;;;1.50;66.25;93557.81;2061826;69;20223;-73
2021/03/06 05:08:44;;;;;;;11.95;7.35;;;;;;;1.61;66.02;93561.69;2062087;69;20156;-73
2021/03/06 05:11:10;;;;;;;11.70;7.63;;;;;;;1.57;65.40;93562.00;2062066;69;20168;-73
2021/03/06 05:13:36;;;;;;;13.05;8.13;;;;;;;1.07;66.90;93563.56;2058638;69;20153;-73
2021/03/06 05:16:03;;;;;;;11.98;7.95;;;;;;;1.16;66.99;93563.19;2062028;69;20150;-73
2021/03/06 05:18:29;;;;;;;11.80;7.95;;;;;;;0.88;67.74;93565.66;2061890;69;20233;-74
2021/03/06 05:20:55;;;;;;;13.13;7.97;;;;;;;1.20;67.51;93563.63;2061888;69;20145;-73
2021/03/06 05:23:20;;;;;;;11.55;7.65;;;;;;;1.38;66.31;93569.66;2061922;69;20193;-73
2021/03/06 05:25:46;;;;;;;13.63;8.27;;;;;;;1.66;65.14;93574.72;2062028;69;20596;-74
2021/03/06 05:28:11;;;;;;;12.25;7.90;;;;;;;1.67;64.84;93574.16;2061890;69;20137;-73
2021/03/06 05:30:37;;;;;;;11.85;8.07;;;;;;;1.64;65.08;93580.78;2061928;69;20146;-74
2021/03/06 05:33:03;;;;;;;16.02;8.65;;;;;;;1.48;64.94;93573.50;2061925;69;20134;-73
2021/03/06 05:35:29;;;;;;;13.75;7.95;;;;;;;1.49;64.57;93577.78;2061785;69;20319;-73
2021/03/06 05:37:54;;;;;;;11.88;8.00;;;;;;;1.39;65.30;93571.13;2061876;69;20133;-73
2021/03/06 05:40:21;;;;;;;12.25;7.90;;;;;;;1.44;64.98;93579.34;2061976;69;20157;-73
2021/03/06 05:42:48;;;;;;;11.65;7.97;;;;;;;1.45;64.65;93575.31;2061851;69;20639;-71
2021/03/06 05:45:13;;;;;;;13.27;8.20;;;;;;;1.50;64.77;93573.72;2061957;69;20582;-71
2021/03/06 05:47:39;;;;;;;12.90;8.40;;;;;;;1.48;65.27;93573.50;2061898;69;20154;-71
2021/03/06 05:50:05;;;;;;;13.68;8.43;;;;;;;1.49;65.10;93567.41;2061879;69;20572;-71
2021/03/06 05:52:32;;;;;;;12.75;8.88;;;;;;;1.25;65.59;93575.91;2061715;69;20243;-71
2021/03/06 05:55:01;;;;;;;11.70;7.93;;;;;;;1.42;64.52;93573.59;2061850;69;20134;-71
2021/03/06 05:57:27;;;;;;;15.52;8.90;;;;;;;1.08;65.49;93580.97;2061795;69;20143;-71
2021/03/06 05:59:54;;;;;;;15.23;9.68;;;;;;;1.12;65.98;93571.06;2061821;69;20252;-71
2021/03/06 06:02:20;;;;;;;15.70;9.07;;;;;;;1.42;65.66;93565.28;2061874;69;20149;-70
2021/03/06 06:04:46;;;;;;;14.73;9.73;;;;;;;1.25;65.99;93570.34;2064095;69;20149;-71
2021/03/06 06:07:19;;;;;;;12.95;8.60;;;;;;;1.59;64.71;93578.84;2061733;69;20177;-71
2021/03/06 06:09:45;;;;;;;14.32;8.68;;;;;;;1.08;66.42;93576.16;2061968;69;20137;-71
2021/03/06 06:12:11;;;;;;;13.30;8.85;;;;;;;1.45;65.60;93574.56;2061796;69;20235;-71
2021/03/06 06:14:38;;;;;;;13.18;8.75;;;;;;;1.54;65.01;93579.69;2061805;69;20200;-71
2021/03/06 06:17:05;;;;;;;13.05;8.85;;;;;;;1.52;64.94;93576.72;2061838;69;20157;-70
2021/03/06 06:19:32;;;;;;;12.65;8.82;;;;;;;1.53;65.31;93576.19;2061724;69;20260;-71
2021/03/06 06:22:00;;;;;;;13.75;9.32;;;;;;;1.55;65.19;93572.13;2061716;69;20585;-71
2021/03/06 06:24:26;;;;;;;11.82;8.27;;;;;;;1.48;64.98;93574.25;2061566;69;20595;-71
2021/03/06 06:27:00;;;;;;;13.55;8.20;;;;;;;1.65;64.68;93576.75;2061794;69;20157;-71
2021/03/06 06:29:44;;;;;;;13.68;9.02;;;;;;;1.23;66.09;93576.41;2061793;69;20191;-71
2021/03/06 06:32:12;;;;;;;16.00;9.43;;;;;;;1.30;65.63;93577.09;2061878;69;20153;-71
2021/03/06 06:34:40;;;;;;;16.10;10.43;;;;;;;1.31;65.76;93592.44;2061840;69;20149;-71
2021/03/06 06:37:15;;;;;;;16.65;11.05;;;;;;;1.51;65.12;93592.63;2061607;69;20215;-71
2021/03/06 06:39:43;;;;;;;15.88;10.65;;;;;;;0.94;66.84;93597.53;2061848;69;20165;-73
2021/03/06 06:42:09;;;;;;;15.30;10.13;;;;;;;1.40;65.57;93595.56;2061756;69;20203;-73
2021/03/06 06:44:36;;;;;;;15.00;10.13;;;;;;;1.43;64.97;93600.06;2061762;69;20134;-74
2021/03/06 06:47:16;;;;;;;17.77;11.35;;;;;;;1.09;65.89;93602.63;2061769;69;20649;-73
2021/03/06 06:49:43;;;;;;;18.38;11.18;;;;;;;0.97;66.06;93602.03;2061771;69;20149;-74
2021/03/06 06:52:09;;;;;;;17.00;10.38;;;;;;;0.82;66.73;93607.28;2061114;69;20243;-73
2021/03/06 06:54:34;;;;;;;16.55;10.60;;;;;;;1.04;65.66;93609.00;2061713;69;20674;-73
2021/03/06 06:57:08;;;;;;;16.23;9.88;;;;;;;1.09;65.75;93610.19;2061712;69;20268;-73
2021/03/06 06:59:34;;;;;;;17.00;10.13;;;;;;;0.84;66.73;93620.63;2061735;69;20269;-71
2021/03/06 07:02:10;;;;;;;19.48;10.70;;;;;;;1.35;64.83;93620.63;2061723;69;20161;-71
2021/03/06 07:04:54;;;;;;;15.70;10.35;;;;;;;0.66;66.66;93620.13;2061702;69;20149;-71
2021/03/06 07:07:21;;;;;;;18.92;11.75;;;;;;;0.58;67.59;93627.53;2061640;69;20586;-71
2021/03/06 07:10:11;;;;;;;18.02;11.15;;;;;;;0.77;66.81;93622.72;2061724;69;20150;-71
2021/03/06 07:12:40;;;;;;;21.40;12.80;;;;;;;0.67;67.29;93620.84;2059807;69;20164;-71
2021/03/06 07:15:21;;;;;;;21.52;12.57;;;;;;;0.94;66.54;93618.97;2061676;69;20172;-71
2021/03/06 07:17:51;;;;;;;18.80;11.40;;;;;;;1.39;65.20;93626.63;2061672;69;20282;-71
2021/03/06 07:20:20;;;;;;;20.52;12.40;;;;;;;0.93;66.35;93617.50;2061664;69;20137;-71
2021/03/06 07:22:46;;;;;;;20.10;11.70;;;;;;;1.00;66.21;93625.19;2061654;69;20142;-71
2021/03/06 07:25:12;;;;;;;22.85;11.75;;;;;;;1.07;65.90;93624.59;2061766;69;20245;-71
2021/03/06 07:27:37;;;;;;;21.80;11.30;;;;;;;1.04;65.45;93631.19;2061890;69;20161;-73
2021/03/06 07:30:07;;;;;;;19.15;12.45;;;;;;;1.02;65.90;93630.97;2061644;69;20210;-71
2021/03/06 07:32:37;;;;;;;35.63;18.85;;;;;;;1.10;65.47;93631.88;2061585;69;20619;-71
2021/03/06 07:35:05;;;;;;;36.22;20.30;;;;;;;1.21;65.10;93639.25;2061685;69;20149;-71
2021/03/06 07:37:31;;;;;;;30.90;18.08;;;;;;;1.68;64.25;93645.06;2061485;69;20165;-71
2021/03/06 07:39:59;;;;;;;29.65;17.25;;;;;;;1.46;64.95;93643.38;2061628;69;20223;-71
2021/03/06 07:42:40;;;;;;;29.52;17.23;;;;;;;1.58;64.21;93643.22;2061600;69;20221;-71
2021/03/06 07:45:06;;;;;;;26.70;16.80;;;;;;;1.58;64.17;93643.22;2061708;69;20312;-71
2021/03/06 07:47:36;;;;;;;27.38;14.68;;;;;;;1.71;63.43;93644.00;2061714;69;20145;-71
2021/03/06 07:50:04;;;;;;;21.70;12.10;;;;;;;1.46;64.10;93640.63;2061612;69;20264;-71
2021/03/06 07:52:32;;;;;;;24.80;12.60;;;;;;;1.53;64.60;93639.25;2061467;69;20176;-71
2021/03/06 07:54:59;;;;;;;22.13;13.30;;;;;;;1.44;64.16;93648.00;2061613;69;20237;-71
2021/03/06 07:57:25;;;;;;;22.65;12.60;;;;;;;1.56;63.79;93645.75;2061560;69;20192;-71
2021/03/06 07:59:55;;;;;;;22.13;12.77;;;;;;;1.71;62.92;93646.03;2061584;69;20169;-74
2021/03/06 08:02:38;;;;;;;20.02;12.23;;;;;;;1.45;64.68;93639.13;2061608;69;20149;-74
2021/03/06 08:05:06;;;;;;;22.10;13.75;;;;;;;0.99;64.86;93635.53;2061534;69;20149;-73
2021/03/06 08:07:47;;;;;;;20.02;12.48;;;;;;;1.57;64.17;93641.72;2061460;69;20177;-73
2021/03/06 08:10:13;;;;;;;22.10;13.43;;;;;;;2.01;63.40;93640.94;2061557;69;20616;-73
2021/03/06 08:12:40;;;;;;;23.48;12.23;;;;;;;2.64;63.27;93643.31;2061541;69;20153;-73
2021/03/06 08:15:32;;;;;;;21.35;12.40;;;;;;;3.98;63.68;93653.41;2061524;69;20153;-74
2021/03/06 08:17:59;;;;;;;19.10;11.82;;;;;;;4.48;60.21;93643.75;2061525;69;20189;-73
2021/03/06 08:20:32;;;;;;;18.42;11.45;;;;;;;4.39;57.67;93647.03;2061430;69;20172;-74
2021/03/06 08:23:20;;;;;;;25.50;13.20;;;;;;;5.03;58.20;93654.63;2061510;69;20137;-73
2021/03/06 08:26:07;;;;;;;27.02;14.98;;;;;;;4.39;55.63;93651.84;2061516;69;20160;-73
2021/03/06 08:28:33;;;;;;;28.90;14.38;;;;;;;5.88;56.11;93660.44;2059033;69;20145;-74
2021/03/06 08:31:37;;;;;;;24.98;14.48;;;;;;;5.70;54.25;93657.44;2061548;69;20147;-74
2021/03/06 08:34:42;;;;;;;14.52;10.15;;;;;;;6.53;52.87;93653.19;2061587;69;20219;-73
2021/03/06 08:37:19;;;;;;;19.10;12.50;;;;;;;6.88;52.00;93647.88;2059890;69;20620;-73
2021/03/06 08:39:52;;;;;;;18.88;12.15;;;;;;;7.50;50.41;93651.91;2061615;69;20180;-74
2021/03/06 08:42:23;;;;;;;16.15;10.93;;;;;;;7.56;49.66;93646.09;2061483;69;20157;-74
2021/03/06 08:44:50;;;;;;;14.30;9.60;;;;;;;8.41;47.45;93652.66;2061602;69;20200;-74
2021/03/06 08:47:25;;;;;;;15.88;10.43;;;;;;;9.01;46.26;93650.56;2061630;69;20631;-74
2021/03/06 08:49:55;;;;;;;13.73;9.82;;;;;;;8.58;46.84;93646.34;2061974;69;20169;-73
2021/03/06 08:52:22;;;;;;;13.57;10.20;;;;;;;7.82;46.27;93647.63;2061865;69;20225;-74
2021/03/06 08:54:48;;;;;;;13.30;9.63;;;;;;;8.18;45.78;93646.47;2062063;69;20164;-74
2021/03/06 08:57:35;;;;;;;12.60;9.68;;;;;;;8.38;44.78;93637.72;2061931;69;20597;-73
2021/03/06 09:00:15;;;;;;;12.73;9.38;;;;;;;9.93;43.40;93644.53;2061947;69;20161;-73
2021/03/06 09:02:41;;;;;;;14.10;9.68;;;;;;;10.22;42.07;93646.00;2061933;69;20169;-74
2021/03/06 09:05:16;;;;;;;14.48;9.82;;;;;;;9.78;41.81;93641.22;2061975;69;20153;-75
2021/03/06 09:07:45;;;;;;;12.05;8.82;;;;;;;8.80;41.26;93644.63;2062093;69;20145;-75
2021/03/06 09:10:23;;;;;;;11.05;8.75;;;;;;;10.98;40.19;93650.38;2061940;69;20142;-75
2021/03/06 09:12:52;;;;;;;10.52;7.53;;;;;;;11.01;40.42;93648.47;2062030;69;20517;-72
2021/03/06 09:15:36;;;;;;;9.65;7.65;;;;;;;11.48;37.53;93644.16;2061612;69;20145;-72
2021/03/06 09:18:03;;;;;;;13.68;8.43;;;;;;;11.06;39.78;93636.88;2061882;69;20156;-73
2021/03/06 09:20:31;;;;;;;13.10;8.57;;;;;;;10.84;39.99;93638.06;2061802;69;20177;-72
2021/03/06 09:22:57;;;;;;;10.77;8.32;;;;;;;12.06;38.15;93641.25;2062049;69;20264;-73
2021/03/06 09:25:28;;;;;;;11.90;8.85;;;;;;;12.78;36.75;93637.66;2061857;69;20149;-72
2021/03/06 09:27:54;;;;;;;11.48;8.90;;;;;;;11.62;37.83;93633.16;2061922;69;20130;-72
2021/03/06 09:30:20;;;;;;;10.02;7.60;;;;;;;11.64;35.63;93642.50;2061809;69;20150;-73
2021/03/06 09:32:47;;;;;;;9.82;7.90;;;;;;;11.88;34.47;93632.25;2061962;69;20153;-72
2021/03/06 09:35:14;;;;;;;12.07;8.93;;;;;;;10.06;37.78;93637.78;2061760;69;20141;-72
2021/03/06 09:37:39;;;;;;;10.95;8.18;;;;;;;9.90;38.08;93642.91;2061860;69;20145;-73
2021/03/06 09:40:22;;;;;;;11.15;7.47;;;;;;;11.52;34.97;93640.88;2061874;69;20168;-72
2021/03/06 09:42:52;;;;;;;11.70;7.73;;;;;;;9.92;37.92;93628.25;2061823;69;20229;-72
2021/03/06 09:45:17;;;;;;;9.00;7.30;;;;;;;12.05;35.79;93627.72;2061351;69;20153;-72
2021/03/06 09:47:44;;;;;;;10.25;8.05;;;;;;;11.67;36.96;93623.63;2061871;69;20176;-72
2021/03/06 09:50:14;;;;;;;10.30;7.30;;;;;;;13.28;34.22;93628.28;2061844;69;20290;-71
2021/03/06 09:52:40;;;;;;;11.65;8.70;;;;;;;13.26;32.90;93626.06;2061875;69;20192;-74
2021/03/06 09:55:18;;;;;;;10.27;7.93;;;;;;;10.68;37.89;93624.25;2061882;69;20149;-73
2021/03/06 09:57:44;;;;;;;9.82;7.90;;;;;;;11.44;35.55;93624.13;2061819;69;20145;-72
2021/03/06 10:00:24;;;;;;;9.88;8.00;;;;;;;9.52;37.44;93618.09;2061852;69;20623;-74
2021/03/06 10:02:53;;;;;;;9.10;7.25;;;;;;;9.86;38.07;93620.09;2061814;69;20589;-71
2021/03/06 10:05:21;;;;;;;9.45;7.45;;;;;;;11.95;34.92;93616.47;2061230;69;20613;-70
2021/03/06 10:07:49;;;;;;;9.13;7.22;;;;;;;11.16;34.74;93611.53;2058454;69;20160;-71
2021/03/06 10:10:15;;;;;;;8.90;6.97;;;;;;;13.54;32.79;93604.53;2058184;69;20671;-69
2021/03/06 10:12:45;;;;;;;8.85;7.15;;;;;;;14.48;31.35;93596.97;2058405;69;20248;-70
2021/03/06 10:15:13;;;;;;;8.18;6.70;;;;;;;15.65;30.12;93600.91;2058373;69;20145;-69
2021/03/06 10:17:45;;;;;;;9.40;6.72;;;;;;;14.70;29.93;93599.66;2058438;69;20731;-70
2021/03/06 10:20:12;;;;;;;7.93;6.78;;;;;;;15.18;28.77;93598.97;2058197;69;20672;-69
2021/03/06 10:22:46;;;;;;;8.30;7.03;;;;;;;13.72;29.85;93596.47;2058336;69;20694;-70
2021/03/06 10:25:22;;;;;;;7.30;6.18;;;;;;;14.59;29.63;93586.97;2060594;69;20150;-70
2021/03/06 10:27:49;;;;;;;7.00;5.75;;;;;;;15.54;28.25;93588.22;2058291;69;20606;-71
2021/03/06 10:30:26;;;;;;;7.30;5.68;;;;;;;17.67;26.92;93594.44;2058373;69;20679;-71
2021/03/06 10:33:00;;;;;;;6.47;5.65;;;;;;;16.11;26.46;93590.66;2058297;69;20141;-71
2021/03/06 10:35:46;;;;;;;6.05;4.70;;;;;;;17.54;24.91;93593.09;2060473;69;20152;-72
2021/03/06 10:38:28;;;;;;;7.65;6.30;;;;;;;16.41;27.05;93583.78;2058280;69;20586;-69
2021/03/06 10:40:56;;;;;;;7.32;6.13;;;;;;;15.17;27.32;93585.41;2058263;69;20138;-68
2021/03/06 10:43:40;;;;;;;7.30;5.80;;;;;;;16.29;27.15;93585.22;2058290;69;20256;-70
2021/03/06 10:46:16;;;;;;;6.32;5.28;;;;;;;17.97;23.61;93581.69;2058270;69;20146;-66
2021/03/06 10:48:43;;;;;;;6.10;5.50;;;;;;;17.68;24.98;93571.00;2058198;69;20173;-67
2021/03/06 10:51:10;;;;;;;6.38;5.75;;;;;;;21.33;23.09;93587.63;2058123;69;20631;-66
2021/03/06 10:53:36;;;;;;;5.90;5.30;;;;;;;24.43;19.38;93585.94;2058193;69;20684;-66
2021/03/06 10:56:06;;;;;;;7.78;5.72;;;;;;;21.30;20.38;93581.06;2058265;69;20177;-67
2021/03/06 10:58:46;;;;;;;7.38;6.47;;;;;;;21.73;20.13;93588.28;2058269;69;20184;-67
2021/03/06 11:01:15;;;;;;;7.13;6.40;;;;;;;22.04;20.02;93578.56;2058271;69;20165;-68
2021/03/06 11:03:41;;;;;;;7.10;6.40;;;;;;;24.36;17.60;93584.28;2058117;69;20626;-68
2021/03/06 11:06:07;;;;;;;7.72;6.20;;;;;;;26.70;16.15;93588.06;2058116;69;20170;-68
2021/03/06 11:08:32;;;;;;;6.57;5.97;;;;;;;22.13;18.44;93576.69;2058254;69;20150;-68
2021/03/06 11:10:58;;;;;;;6.82;6.13;;;;;;;27.26;15.72;93580.88;2058070;69;20160;-67
2021/03/06 11:13:37;;;;;;;6.70;6.10;;;;;;;28.60;13.38;93582.22;2058234;69;20166;-69
2021/03/06 11:16:03;;;;;;;6.30;5.70;;;;;;;28.84;15.92;93578.03;2058161;69;20158;-72
2021/03/06 11:18:29;;;;;;;6.47;5.88;;;;;;;27.61;14.94;93582.00;2058146;69;20156;-69
2021/03/06 11:20:54;;;;;;;7.20;6.55;;;;;;;24.27;16.66;93563.22;2058089;69;20149;-69
2021/03/06 11:23:20;;;;;;;5.70;5.20;;;;;;;29.49;14.33;93574.72;2058169;69;20144;-68
2021/03/06 11:25:46;;;;;;;5.70;5.20;;;;;;;27.61;15.24;93574.06;2058130;69;20160;-68
2021/03/06 11:28:15;;;;;;;5.45;5.05;;;;;;;30.57;13.28;93574.94;2058166;69;20255;-68
2021/03/06 11:30:43;;;;;;;4.18;3.88;;;;;;;28.46;12.07;93566.91;2058135;69;20177;-72
2021/03/06 11:33:11;;;;;;;5.43;4.60;;;;;;;27.13;14.26;93559.78;2058112;69;20141;-72
2021/03/06 11:35:39;;;;;;;4.57;4.18;;;;;;;31.00;12.66;93563.25;2058044;69;20142;-74
2021/03/06 11:38:09;;;;;;;4.63;4.25;;;;;;;33.50;11.26;93557.88;2057815;69;20529;-78
2021/03/06 11:40:37;;;;;;;7.93;7.32;;;;;;;24.94;14.78;93546.72;2057781;69;20134;-77
2021/03/06 11:43:04;;;;;;;5.20;4.72;;;;;;;31.11;12.98;93553.03;2057536;69;20240;-76
2021/03/06 11:45:29;;;;;;;4.40;4.10;;;;;;;31.81;11.57;93556.41;2057137;69;20162;-75